Aérodrome :
LOGIN :

S'inscrire | Disclaimer

   EN    FR    IT 

 










Légende :    VFR   VFR Marginal   IFR   IFR Intensif   IFR Très Intensif
Visi : 
Plafond : 
>= 8 km
>= 3000ft
5 à 8 km
1000 à 3000 ft
1500m à 5 km
500 à 1000 ft
800 à 1500m
200 à 500 ft
< 800m
< 200 ft
Symboles :   Orages  Brouillard  Fortes neiges  Fortes précipitations  Vent > 20 kt
SIGMETs :   Divers  Orages  Givrage  Turbulence  Onde Orograph.  Cendres Volcan.







- Altitude de l'aérodrome : 628 ft
- Code IATA : PNL


LICG - Pantelleria

DERNIER METAR :
  • 201755Z 29006KT 9999 FEW020 14/13 Q1021 RMK FEW VIS MIN 9999 WIND THR08 /////KT WIND THR21 30005KT BLU

METARs EXPIRÉS :
  • 201655Z 30006KT 9999 FEW020 14/13 Q1020 RMK FEW VIS MIN 9999 WIND THR08 /////KT WIND THR21 31006KT BLU

TAF TAF LICG
Valide du 20 à 18h jusqu'au 21 à 03h UTC


201700Z 2018/2103 34008KT 9999 FEW015
Pas de NOTAMs connus pour ce terrain.



MET'MAP, la Météo Aéronautique d'un coup d'oeil ! - Copyright ORBIFLY Décembre 2007 - Disclaimer

ORBIFLY MET'MAP TEAM :

Programmation & Développement : Alexandra Zaïnal
Conception & Développement : Baudouin d'Aumeries
Co-Programmation & Développement : Marc-Olivier Méhu
Soutien technique & logistique : Manuel Goepfert

Contact : metmap@orbifly.com




SOURCES & CREDITS :

   NOAA